Time;durP1;ratioP1;P1;durP2;ratioP2;P2;SDS_P1;SDS_P2;PMS_P1;PMS_P2;Temp;Humidity;BMP_temperature;BMP_pressure;BME280_temperature;BME280_humidity;BME280_pressure;Samples;Min_cycle;Max_cycle;Signal;HPM_P1;HPM_P2
2021/11/21 03:46:32;;;;;;;25.23;15.70;;;7.80;98.00;;;;;;5273841;23;20449;-79
2021/11/21 03:48:58;;;;;;;31.00;16.23;;;7.90;97.90;;;;;;4832279;29;20035;-79
2021/11/21 03:51:24;;;;;;;25.67;16.08;;;7.90;97.80;;;;;;4802147;29;20078;-79
2021/11/21 03:53:50;;;;;;;27.60;16.92;;;7.90;97.60;;;;;;4832470;29;20039;-79
2021/11/21 03:56:16;;;;;;;28.15;16.95;;;7.90;97.60;;;;;;4817253;29;20377;-79
2021/11/21 03:58:42;;;;;;;27.10;17.38;;;8.00;97.70;;;;;;4817238;29;20042;-79
2021/11/21 04:01:08;;;;;;;27.75;16.48;;;7.90;97.80;;;;;;4787231;29;20271;-79
2021/11/21 04:03:34;;;;;;;27.65;15.57;;;8.00;97.80;;;;;;4817125;29;20045;-79
2021/11/21 04:06:00;;;;;;;25.92;17.23;;;8.10;97.70;;;;;;4802238;29;20067;-79
2021/11/21 04:08:26;;;;;;;25.00;15.38;;;8.10;97.60;;;;;;4832350;29;20034;-79
2021/11/21 04:10:51;;;;;;;30.15;17.17;;;8.10;97.60;;;;;;4787195;29;20397;-79
2021/11/21 04:13:19;;;;;;;22.27;15.55;;;8.20;97.50;;;;;;4817207;29;20050;-78
2021/11/21 04:15:45;;;;;;;27.98;16.02;;;8.20;97.40;;;;;;4832217;29;20043;-79
2021/11/21 04:18:11;;;;;;;27.05;17.92;;;8.20;97.20;;;;;;4817099;29;20037;-78
2021/11/21 04:20:37;;;;;;;29.85;17.67;;;8.20;97.30;;;;;;4802135;29;20070;-78
2021/11/21 04:23:02;;;;;;;29.70;18.30;;;8.20;97.40;;;;;;4817066;29;20033;-78
2021/11/21 04:25:29;;;;;;;29.37;17.97;;;8.10;97.30;;;;;;4832216;29;20329;-78
2021/11/21 04:27:54;;;;;;;32.83;17.77;;;8.10;97.60;;;;;;4816910;29;20105;-78
2021/11/21 04:30:20;;;;;;;28.25;18.45;;;8.10;97.70;;;;;;4819452;29;20038;-79
2021/11/21 04:32:47;;;;;;;27.67;17.35;;;8.10;97.60;;;;;;4805210;29;20281;-78
2021/11/21 04:35:17;;;;;;;29.15;17.20;;;8.20;97.60;;;;;;4820349;29;20038;-78
2021/11/21 04:37:43;;;;;;;31.75;17.98;;;8.20;97.50;;;;;;4835277;29;20109;-79
2021/11/21 04:40:10;;;;;;;27.58;16.90;;;8.20;97.30;;;;;;4805370;29;20046;-78
2021/11/21 04:42:38;;;;;;;30.17;17.73;;;8.20;97.20;;;;;;4805469;29;20035;-78
2021/11/21 04:45:04;;;;;;;27.90;16.90;;;8.20;97.30;;;;;;4820103;29;20034;-78
2021/11/21 04:47:30;;;;;;;28.83;17.37;;;8.20;97.30;;;;;;4801934;29;20471;-79
2021/11/21 04:49:56;;;;;;;25.33;16.58;;;8.30;97.30;;;;;;4802216;29;20300;-80
2021/11/21 04:52:21;;;;;;;28.02;17.02;;;8.30;97.20;;;;;;4802084;29;20230;-79
2021/11/21 04:54:47;;;;;;;28.63;18.23;;;8.30;97.20;;;;;;4817087;29;20043;-80
2021/11/21 04:57:15;;;;;;;30.65;17.45;;;8.30;97.10;;;;;;4802052;29;20038;-80
2021/11/21 04:59:41;;;;;;;26.40;16.85;;;8.30;97.10;;;;;;4787470;29;20042;-79
2021/11/21 05:02:07;;;;;;;28.17;17.55;;;8.30;97.00;;;;;;4801966;29;20419;-80
2021/11/21 05:04:34;;;;;;;27.45;16.80;;;8.40;96.90;;;;;;4816883;29;20071;-80
2021/11/21 05:07:00;;;;;;;26.08;16.45;;;8.40;96.90;;;;;;4801660;29;20046;-80
2021/11/21 05:09:26;;;;;;;26.83;16.98;;;8.40;96.90;;;;;;4786907;29;20058;-79
2021/11/21 05:11:51;;;;;;;26.60;17.25;;;8.40;96.80;;;;;;4816713;29;20230;-79
2021/11/21 05:14:18;;;;;;;28.13;17.42;;;8.40;96.80;;;;;;4801522;29;20084;-80
2021/11/21 05:16:45;;;;;;;27.77;17.13;;;8.40;96.90;;;;;;4801390;29;20046;-80
2021/11/21 05:19:11;;;;;;;29.77;17.80;;;8.40;96.90;;;;;;4801476;29;20065;-79
2021/11/21 05:21:37;;;;;;;30.90;18.80;;;8.40;97.20;;;;;;4801653;29;20342;-80
2021/11/21 05:24:03;;;;;;;30.67;18.77;;;8.40;96.90;;;;;;4801497;29;20058;-80
2021/11/21 05:26:29;;;;;;;27.15;16.92;;;8.40;96.90;;;;;;4786842;29;20117;-80
2021/11/21 05:28:55;;;;;;;30.58;17.05;;;8.40;96.90;;;;;;4801567;29;20407;-80
2021/11/21 05:31:21;;;;;;;27.60;17.75;;;8.40;97.00;;;;;;4771643;29;20035;-80
2021/11/21 05:33:48;;;;;;;28.05;16.13;;;8.40;97.30;;;;;;4807620;29;20098;-80
2021/11/21 05:36:14;;;;;;;28.83;15.90;;;8.40;97.00;;;;;;4801274;29;20030;-80
2021/11/21 05:38:40;;;;;;;26.77;16.48;;;8.40;97.00;;;;;;4786394;29;20358;-79
2021/11/21 05:41:06;;;;;;;27.73;16.67;;;8.40;97.00;;;;;;4785479;29;20046;-80
2021/11/21 05:43:33;;;;;;;27.98;16.98;;;8.40;96.90;;;;;;4801303;29;20299;-80
2021/11/21 05:45:59;;;;;;;27.97;17.13;;;8.40;97.00;;;;;;4815902;29;20059;-80
2021/11/21 05:48:25;;;;;;;30.23;17.48;;;8.40;97.00;;;;;;4816275;29;20095;-79
2021/11/21 05:50:50;;;;;;;26.85;15.90;;;8.40;97.10;;;;;;4786294;29;20115;-80
2021/11/21 05:53:16;;;;;;;30.15;18.33;;;8.30;97.10;;;;;;4801188;29;20039;-80
2021/11/21 05:55:42;;;;;;;25.20;15.30;;;8.30;97.10;;;;;;4786017;29;20042;-80
2021/11/21 05:58:09;;;;;;;28.85;17.30;;;8.30;97.40;;;;;;4800781;29;20038;-80
2021/11/21 06:00:36;;;;;;;29.95;17.67;;;8.30;97.20;;;;;;4801117;29;20226;-80
2021/11/21 06:03:02;;;;;;;28.23;16.75;;;8.30;97.20;;;;;;4817073;29;20026;-80
2021/11/21 06:05:28;;;;;;;28.13;17.05;;;8.40;97.20;;;;;;4771283;29;20031;-80
2021/11/21 06:07:53;;;;;;;30.25;18.52;;;8.40;97.20;;;;;;4803701;29;20199;-80
2021/11/21 06:10:19;;;;;;;31.30;16.92;;;8.40;97.10;;;;;;4815584;29;20245;-80
2021/11/21 06:12:45;;;;;;;31.05;17.58;;;8.50;97.00;;;;;;4815680;29;20121;-80
2021/11/21 06:15:12;;;;;;;31.65;18.88;;;8.50;97.00;;;;;;4800540;29;20038;-80
2021/11/21 06:17:38;;;;;;;31.30;17.65;;;8.50;96.80;;;;;;4785032;29;20043;-80
2021/11/21 06:20:06;;;;;;;29.98;18.75;;;8.50;96.70;;;;;;4800212;29;20087;-80
2021/11/21 06:22:32;;;;;;;30.58;18.85;;;8.60;96.80;;;;;;4800564;29;20113;-80
2021/11/21 06:24:58;;;;;;;35.03;20.05;;;8.60;96.80;;;;;;4800424;29;20038;-80
2021/11/21 06:27:24;;;;;;;31.83;18.10;;;8.70;96.60;;;;;;4800245;29;20062;-79
2021/11/21 06:29:50;;;;;;;32.88;19.73;;;8.70;96.50;;;;;;4815533;29;20041;-80
2021/11/21 06:32:17;;;;;;;32.40;20.05;;;8.70;96.50;;;;;;4770543;29;20034;-80
2021/11/21 06:34:43;;;;;;;34.92;20.50;;;8.70;96.70;;;;;;4800713;29;20189;-80
2021/11/21 06:37:09;;;;;;;30.60;18.20;;;8.80;96.70;;;;;;4799703;29;20066;-80
2021/11/21 06:39:39;;;;;;;31.73;19.30;;;8.80;96.60;;;;;;4800070;29;20080;-80
2021/11/21 06:42:06;;;;;;;35.33;20.13;;;8.80;96.90;;;;;;4782704;29;20042;-80
2021/11/21 06:44:32;;;;;;;36.30;20.80;;;8.80;96.50;;;;;;4785440;29;20046;-80
2021/11/21 06:46:57;;;;;;;35.38;20.30;;;8.80;96.60;;;;;;4799417;29;20093;-80
2021/11/21 06:49:23;;;;;;;34.78;19.13;;;8.80;96.60;;;;;;4784079;29;20037;-80
2021/11/21 06:51:50;;;;;;;33.30;19.15;;;8.80;96.70;;;;;;4799079;29;20042;-79
2021/11/21 06:54:16;;;;;;;32.80;18.88;;;8.70;96.80;;;;;;4783853;29;20238;-79
2021/11/21 06:56:43;;;;;;;33.45;18.98;;;8.70;96.90;;;;;;4798134;29;20039;-79
2021/11/21 06:59:09;;;;;;;30.88;18.63;;;8.80;96.90;;;;;;4813017;29;20207;-79
2021/11/21 07:01:35;;;;;;;31.98;19.27;;;8.90;96.80;;;;;;4814236;29;20019;-79
2021/11/21 07:04:00;;;;;;;31.20;20.15;;;8.90;96.70;;;;;;4798130;29;20227;-79
2021/11/21 07:06:39;;;;;;;29.80;18.77;;;9.00;96.60;;;;;;4798329;29;20054;-79
2021/11/21 07:09:07;;;;;;;30.40;17.55;;;9.10;96.70;;;;;;4797915;29;20029;-78
2021/11/21 07:11:33;;;;;;;34.85;19.98;;;9.20;96.50;;;;;;4797642;29;20337;-78
2021/11/21 07:13:59;;;;;;;33.03;20.95;;;9.30;96.20;;;;;;4798029;29;20041;-78
2021/11/21 07:16:27;;;;;;;34.38;20.85;;;9.30;96.10;;;;;;4798404;29;20327;-79
2021/11/21 07:18:54;;;;;;;39.05;22.65;;;9.40;96.30;;;;;;4783253;29;20045;-79
2021/11/21 07:21:19;;;;;;;41.13;24.77;;;9.40;96.20;;;;;;4798334;29;20337;-79
2021/11/21 07:23:45;;;;;;;43.95;25.60;;;9.50;96.30;;;;;;4798215;29;20080;-80
2021/11/21 07:26:12;;;;;;;41.97;26.02;;;9.40;96.10;;;;;;4814253;29;20049;-79
2021/11/21 07:28:38;;;;;;;43.63;25.50;;;9.50;96.20;;;;;;4797340;29;20058;-79
2021/11/21 07:31:04;;;;;;;49.67;29.00;;;9.50;96.10;;;;;;4798104;29;20345;-79
2021/11/21 07:33:30;;;;;;;51.33;28.83;;;9.60;96.10;;;;;;4810480;29;20034;-79
2021/11/21 07:35:56;;;;;;;52.63;29.20;;;9.60;96.20;;;;;;4808805;29;20033;-80
2021/11/21 07:38:23;;;;;;;47.05;29.00;;;9.70;96.20;;;;;;4797500;29;20354;-80
2021/11/21 07:40:52;;;;;;;49.92;27.75;;;9.70;96.00;;;;;;4782914;29;20140;-80
2021/11/21 07:43:18;;;;;;;53.67;31.23;;;9.70;96.00;;;;;;4795528;29;20035;-80
2021/11/21 07:45:44;;;;;;;51.25;30.65;;;9.70;96.10;;;;;;4797841;29;20047;-80
2021/11/21 07:48:10;;;;;;;49.75;28.23;;;9.70;96.10;;;;;;4767578;29;20034;-80
2021/11/21 07:50:36;;;;;;;53.58;29.50;;;9.70;96.00;;;;;;4782573;29;20035;-80
2021/11/21 07:53:02;;;;;;;52.70;30.40;;;9.80;96.10;;;;;;4797704;29;20027;-80
2021/11/21 07:55:27;;;;;;;54.05;30.17;;;9.80;96.00;;;;;;4782756;29;20031;-80
2021/11/21 07:57:53;;;;;;;53.50;29.25;;;9.90;96.10;;;;;;4810605;29;20076;-80
2021/11/21 08:00:19;;;;;;;51.17;30.77;;;10.00;95.90;;;;;;4796845;29;20035;-80
2021/11/21 08:02:46;;;;;;;60.78;31.88;;;10.10;95.90;;;;;;4797440;29;20093;-80
2021/11/21 08:05:12;;;;;;;48.97;27.10;;;10.30;95.60;;;;;;4799851;29;20027;-80
2021/11/21 08:07:38;;;;;;;49.83;29.67;;;10.30;95.10;;;;;;4800568;29;20103;-80
2021/11/21 08:10:06;;;;;;;61.38;33.95;;;10.30;94.90;;;;;;4800682;29;20103;-80
2021/11/21 08:12:32;;;;;;;55.97;30.65;;;10.40;95.00;;;;;;4799832;29;20606;-80
2021/11/21 08:14:58;;;;;;;51.45;31.05;;;10.50;94.80;;;;;;4815690;29;20033;-80
2021/11/21 08:17:23;;;;;;;51.63;31.20;;;10.50;94.60;;;;;;4799880;29;20098;-79
2021/11/21 08:19:49;;;;;;;51.78;30.20;;;10.50;94.40;;;;;;4800418;29;20031;-80
2021/11/21 08:22:15;;;;;;;57.00;32.42;;;10.40;94.50;;;;;;4800452;29;20042;-80
2021/11/21 08:24:41;;;;;;;57.50;33.08;;;10.40;94.50;;;;;;4800897;29;20279;-80
2021/11/21 08:27:07;;;;;;;57.78;32.38;;;10.30;94.60;;;;;;4813354;29;20027;-80
2021/11/21 08:29:33;;;;;;;57.63;32.05;;;10.30;94.80;;;;;;4786234;29;20076;-80
2021/11/21 08:31:59;;;;;;;62.00;34.63;;;10.20;94.80;;;;;;4816080;29;20066;-80
2021/11/21 08:34:25;;;;;;;60.60;34.25;;;10.20;95.00;;;;;;4799470;29;20030;-80
2021/11/21 08:36:52;;;;;;;58.40;33.67;;;10.20;95.20;;;;;;4800398;29;20030;-80
2021/11/21 08:39:21;;;;;;;63.63;33.28;;;10.10;95.10;;;;;;4770768;29;20039;-80
2021/11/21 08:41:48;;;;;;;56.95;33.10;;;10.00;95.10;;;;;;4801366;29;20353;-79
2021/11/21 08:44:14;;;;;;;57.67;33.05;;;9.90;95.40;;;;;;4800689;29;20034;-80
2021/11/21 08:46:39;;;;;;;57.47;32.90;;;9.90;95.80;;;;;;4800711;29;20055;-80
2021/11/21 08:49:05;;;;;;;58.28;31.85;;;9.90;95.80;;;;;;4816018;29;20034;-80
2021/11/21 08:51:31;;;;;;;62.38;34.30;;;9.80;95.90;;;;;;4784918;29;20035;-80
2021/11/21 08:53:57;;;;;;;67.47;34.72;;;9.70;95.90;;;;;;4815762;29;20031;-80
2021/11/21 08:56:22;;;;;;;59.35;32.72;;;9.70;96.40;;;;;;4801075;29;20023;-80
2021/11/21 08:58:49;;;;;;;62.38;34.42;;;9.80;96.40;;;;;;4786073;29;20058;-79
2021/11/21 09:01:15;;;;;;;61.55;34.80;;;10.00;96.20;;;;;;4815689;29;20404;-80
2021/11/21 09:03:41;;;;;;;59.78;33.90;;;10.20;96.20;;;;;;4816088;29;20079;-80
2021/11/21 09:06:07;;;;;;;60.38;36.13;;;10.30;95.40;;;;;;4771072;29;20275;-80
2021/11/21 09:08:33;;;;;;;57.83;34.65;;;10.30;95.00;;;;;;4785630;29;20208;-80
2021/11/21 09:10:59;;;;;;;55.35;33.47;;;10.20;94.90;;;;;;4801081;29;20080;-80
2021/11/21 09:13:27;;;;;;;60.33;36.63;;;10.10;95.00;;;;;;4800818;29;20330;-80
2021/11/21 09:15:54;;;;;;;59.88;35.55;;;10.00;95.50;;;;;;4814433;29;20046;-79
2021/11/21 09:18:24;;;;;;;62.70;36.05;;;10.10;95.70;;;;;;4816368;29;20102;-79
2021/11/21 09:20:52;;;;;;;61.80;35.83;;;10.20;95.50;;;;;;4786932;29;20195;-80
2021/11/21 09:23:19;;;;;;;56.85;35.55;;;10.20;95.40;;;;;;4800096;29;20029;-80
2021/11/21 09:25:46;;;;;;;64.03;36.40;;;10.30;95.30;;;;;;4815423;29;20031;-80
2021/11/21 09:28:12;;;;;;;63.92;36.15;;;10.40;95.00;;;;;;4797722;29;20222;-80
2021/11/21 09:30:38;;;;;;;57.17;35.92;;;10.40;94.80;;;;;;4800279;29;20018;-80
2021/11/21 09:33:04;;;;;;;63.95;35.88;;;10.40;95.10;;;;;;4799810;29;20091;-80
2021/11/21 09:35:30;;;;;;;57.73;35.63;;;10.50;94.90;;;;;;4798342;29;20035;-80
2021/11/21 09:37:58;;;;;;;61.27;35.37;;;10.50;94.70;;;;;;4770124;29;20113;-80
2021/11/21 09:40:25;;;;;;;58.42;34.85;;;10.60;95.10;;;;;;4814966;29;20629;-81
2021/11/21 09:42:50;;;;;;;63.60;35.83;;;10.70;94.60;;;;;;4815003;29;20033;-80
2021/11/21 09:45:17;;;;;;;65.53;36.83;;;10.80;94.40;;;;;;4799964;29;20102;-80
2021/11/21 09:47:53;;;;;;;56.90;34.45;;;10.90;94.00;;;;;;4799848;29;20041;-80
2021/11/21 09:50:21;;;;;;;60.17;34.10;;;10.90;93.80;;;;;;4799956;29;20047;-80
2021/11/21 09:52:48;;;;;;;59.15;35.83;;;10.90;94.00;;;;;;4814779;29;20085;-80
2021/11/21 09:55:14;;;;;;;62.97;37.58;;;10.80;93.70;;;;;;4799789;29;20038;-80
2021/11/21 09:57:40;;;;;;;58.90;33.60;;;10.70;93.70;;;;;;4799446;29;20039;-81
2021/11/21 10:00:11;;;;;;;58.45;33.90;;;10.70;93.60;;;;;;4800278;29;20039;-80
2021/11/21 10:02:43;;;;;;;61.20;35.40;;;10.70;93.60;;;;;;4814988;29;20034;-80
2021/11/21 10:05:16;;;;;;;57.80;35.50;;;10.70;93.70;;;;;;4799378;29;20141;-80
2021/11/21 10:07:43;;;;;;;64.20;36.10;;;10.70;93.70;;;;;;4799373;29;20023;-80
2021/11/21 10:10:13;;;;;;;59.75;37.28;;;10.70;93.90;;;;;;4799662;29;20031;-80
2021/11/21 10:12:41;;;;;;;55.08;33.35;;;10.60;93.80;;;;;;4810725;29;20413;-80
2021/11/21 10:15:18;;;;;;;60.38;35.10;;;10.60;94.00;;;;;;4796850;29;20697;-81
2021/11/21 10:17:46;;;;;;;;;;;10.50;93.90;;;;;;4812601;29;20102;-80
2021/11/21 10:20:25;;;;;;;61.22;35.20;;;10.50;93.80;;;;;;4799290;29;20182;-80
2021/11/21 10:23:05;;;;;;;61.17;34.25;;;10.50;93.90;;;;;;4815042;29;20083;-81
2021/11/21 10:25:35;;;;;;;65.28;35.25;;;10.50;94.20;;;;;;4799717;29;20027;-81
2021/11/21 10:28:08;;;;;;;60.95;35.88;;;10.50;94.30;;;;;;4814215;29;20326;-81
2021/11/21 10:30:52;;;;;;;65.63;36.70;;;10.50;94.20;;;;;;4815897;29;20059;-81
2021/11/21 10:33:28;;;;;;;57.90;33.72;;;10.50;94.10;;;;;;4814547;29;20792;-81
2021/11/21 10:35:57;;;;;;;67.65;35.75;;;10.50;93.90;;;;;;4814567;29;20037;-80
2021/11/21 10:38:53;;;;;;;61.13;33.42;;;10.50;94.10;;;;;;4799444;29;20027;-79
2021/11/21 10:41:31;;;;;;;60.40;35.10;;;10.50;94.00;;;;;;4787794;29;20114;-80
2021/11/21 10:44:06;;;;;;;59.70;33.35;;;10.50;94.20;;;;;;4813524;29;20042;-81
2021/11/21 10:46:47;;;;;;;57.13;33.42;;;10.50;94.40;;;;;;4812635;29;20051;-81
2021/11/21 10:49:39;;;;;;;63.40;35.55;;;10.70;94.40;;;;;;4798276;29;20262;-80
2021/11/21 10:52:17;;;;;;;68.13;36.80;;;10.80;93.80;;;;;;4813416;29;20051;-80
2021/11/21 10:54:50;;;;;;;64.43;35.55;;;10.70;93.80;;;;;;4798122;29;20088;-81
2021/11/21 10:57:17;;;;;;;65.32;35.05;;;10.70;93.70;;;;;;4813297;29;20046;-80
2021/11/21 10:59:49;;;;;;;64.68;36.35;;;10.70;93.70;;;;;;4797422;29;20043;-80
2021/11/21 11:02:19;;;;;;;60.03;34.17;;;10.70;93.60;;;;;;4812454;29;20043;-80
2021/11/21 11:05:18;;;;;;;59.40;32.90;;;10.70;93.60;;;;;;4810327;29;20046;-81
2021/11/21 11:07:46;;;;;;;60.45;32.00;;;10.60;93.70;;;;;;4797431;29;20026;-81
2021/11/21 11:10:23;;;;;;;56.50;31.25;;;10.60;93.50;;;;;;4796878;29;20042;-81
2021/11/21 11:12:52;;;;;;;65.65;32.72;;;10.50;93.50;;;;;;4805157;29;20093;-80
2021/11/21 11:15:19;;;;;;;57.25;31.85;;;10.50;93.70;;;;;;4781848;29;20043;-81
2021/11/21 11:17:45;;;;;;;51.92;29.20;;;10.60;93.80;;;;;;4798651;29;20391;-79
2021/11/21 11:20:13;;;;;;;57.37;31.17;;;10.60;93.60;;;;;;4797794;29;20222;-79
2021/11/21 11:22:40;;;;;;;50.67;28.77;;;10.60;93.90;;;;;;4800503;29;20035;-79
2021/11/21 11:25:10;;;;;;;58.03;30.42;;;10.70;93.60;;;;;;4781224;29;20234;-81
2021/11/21 11:27:49;;;;;;;56.88;30.15;;;10.70;93.50;;;;;;4812648;29;20034;-80
2021/11/21 11:30:18;;;;;;;61.22;32.20;;;10.70;93.80;;;;;;4812407;29;20369;-81
2021/11/21 11:32:46;;;;;;;55.30;30.00;;;10.90;93.60;;;;;;4828349;29;20062;-81
2021/11/21 11:35:18;;;;;;;58.40;30.83;;;11.00;93.30;;;;;;4798396;29;20101;-80
2021/11/21 11:37:47;;;;;;;63.08;32.10;;;11.00;93.30;;;;;;4813561;29;20054;-81
2021/11/21 11:40:28;;;;;;;56.72;29.38;;;11.00;93.30;;;;;;4797505;29;20082;-80
2021/11/21 11:42:57;;;;;;;63.30;32.15;;;11.00;93.30;;;;;;4797661;29;20195;-80
2021/11/21 11:45:42;;;;;;;71.47;32.03;;;11.00;93.20;;;;;;4812267;29;20027;-80
2021/11/21 11:48:35;;;;;;;56.70;30.25;;;11.10;93.00;;;;;;4797711;29;20030;-80
2021/11/21 11:51:41;;;;;;;58.10;29.25;;;10.90;92.80;;;;;;4813928;29;20352;-80
2021/11/21 11:54:15;;;;;;;55.78;28.33;;;10.80;93.50;;;;;;4756132;30;20281;-80
2021/11/21 11:56:46;;;;;;;56.30;30.63;;;10.80;93.60;;;;;;4778342;30;20338;-80
2021/11/21 11:59:28;;;;;;;58.28;29.90;;;10.80;93.60;;;;;;4752777;30;20118;-80
2021/11/21 12:02:03;;;;;;;65.95;31.75;;;10.80;93.30;;;;;;4764939;29;20059;-81
2021/11/21 12:04:28;;;;;;;57.67;30.90;;;10.70;93.30;;;;;;4778705;30;20075;-79
2021/11/21 12:07:00;;;;;;;62.72;30.25;;;10.70;93.70;;;;;;4793321;30;20035;-79
2021/11/21 12:09:33;;;;;;;61.08;31.50;;;10.70;93.70;;;;;;4794666;29;20050;-79
2021/11/21 12:12:01;;;;;;;63.75;33.08;;;10.70;93.40;;;;;;4792339;29;20051;-79
2021/11/21 12:14:31;;;;;;;60.58;31.30;;;10.60;93.50;;;;;;4795679;29;20321;-79
2021/11/21 12:17:05;;;;;;;57.97;28.75;;;10.60;93.70;;;;;;4778907;30;20287;-79
2021/11/21 12:19:45;;;;;;;60.35;30.65;;;10.50;93.90;;;;;;4800065;29;20088;-79
2021/11/21 12:22:38;;;;;;;58.53;29.60;;;10.50;93.80;;;;;;4781600;30;20071;-79
2021/11/21 12:25:31;;;;;;;54.38;29.38;;;10.50;94.10;;;;;;4794375;29;20032;-79
2021/11/21 12:27:58;;;;;;;54.90;27.58;;;10.50;94.30;;;;;;4689060;30;20081;-79
2021/11/21 12:30:30;;;;;;;50.53;28.23;;;10.50;94.20;;;;;;4698010;30;20345;-79
2021/11/21 12:33:06;;;;;;;56.67;30.75;;;10.50;94.20;;;;;;4707873;30;20049;-79
2021/11/21 12:35:38;;;;;;;53.22;28.85;;;10.60;94.00;;;;;;4707566;30;20100;-79
2021/11/21 12:38:23;;;;;;;53.80;30.52;;;10.60;93.60;;;;;;4713647;30;20856;-79
2021/11/21 12:40:59;;;;;;;52.00;28.35;;;10.40;93.70;;;;;;4708478;30;20091;-79
2021/11/21 12:43:25;;;;;;;54.97;30.67;;;10.30;94.00;;;;;;4719909;30;20120;-80
2021/11/21 12:45:58;;;;;;;58.50;29.65;;;10.20;94.30;;;;;;4695187;30;20103;-79
2021/11/21 12:48:25;;;;;;;63.78;31.73;;;10.20;94.60;;;;;;4708645;30;20272;-79
2021/11/21 12:50:53;;;;;;;51.58;27.52;;;10.20;94.50;;;;;;4706887;30;20029;-79
2021/11/21 12:53:30;;;;;;;56.28;29.63;;;10.20;94.50;;;;;;4722830;30;20281;-79
2021/11/21 12:56:06;;;;;;;54.92;27.05;;;10.20;94.60;;;;;;4710805;30;20040;-80
2021/11/21 12:58:38;;;;;;;53.50;28.23;;;10.10;94.70;;;;;;4717229;30;20332;-81
2021/11/21 13:01:08;;;;;;;51.20;28.95;;;10.20;94.80;;;;;;4712335;30;20079;-81
2021/11/21 13:03:34;;;;;;;116.53;59.80;;;10.30;94.50;;;;;;4720403;29;20041;-79
2021/11/21 13:06:05;;;;;;;75.32;37.97;;;10.30;94.30;;;;;;4800122;29;20253;-79
2021/11/21 13:08:43;;;;;;;60.20;30.75;;;10.20;94.50;;;;;;4811020;29;20106;-79
2021/11/21 13:11:16;;;;;;;64.47;32.20;;;10.10;94.60;;;;;;4800042;29;20039;-79
2021/11/21 13:13:47;;;;;;;58.25;31.45;;;10.10;94.70;;;;;;4809743;29;20027;-80
2021/11/21 13:16:19;;;;;;;60.80;33.70;;;10.10;94.80;;;;;;4798937;29;20052;-80
2021/11/21 13:18:46;;;;;;;54.67;30.35;;;10.10;94.70;;;;;;4811020;29;20236;-79
2021/11/21 13:21:19;;;;;;;53.75;29.85;;;10.00;94.80;;;;;;4815076;29;20066;-80
2021/11/21 13:23:48;;;;;;;59.22;32.70;;;10.00;94.60;;;;;;4799142;29;20113;-79
2021/11/21 13:26:20;;;;;;;57.60;32.20;;;9.90;94.70;;;;;;4802708;29;20030;-79
2021/11/21 13:28:47;;;;;;;61.95;33.55;;;9.90;94.90;;;;;;4814874;29;20310;-79
2021/11/21 13:31:32;;;;;;;56.40;30.80;;;9.80;95.10;;;;;;4800375;29;20058;-80
2021/11/21 13:34:02;;;;;;;56.00;30.60;;;9.90;95.30;;;;;;4800140;29;20038;-79
2021/11/21 13:36:40;;;;;;;67.45;34.95;;;9.80;95.10;;;;;;4815852;29;20035;-80
2021/11/21 13:39:12;;;;;;;61.00;33.03;;;9.80;95.30;;;;;;4827947;29;20034;-80
2021/11/21 13:41:41;;;;;;;49.83;28.77;;;9.80;95.40;;;;;;4800613;29;20065;-80
2021/11/21 13:44:16;;;;;;;57.25;30.10;;;9.80;95.30;;;;;;4815654;29;20030;-80
2021/11/21 13:46:47;;;;;;;59.90;30.60;;;9.70;95.20;;;;;;4800238;29;20161;-81
2021/11/21 13:49:25;;;;;;;63.22;33.05;;;9.70;95.30;;;;;;4815209;29;20049;-81
2021/11/21 13:52:07;;;;;;;58.72;30.88;;;9.70;95.40;;;;;;4800643;29;20062;-81
2021/11/21 13:54:46;;;;;;;54.22;30.35;;;9.60;95.30;;;;;;4815294;29;20045;-80
2021/11/21 13:57:24;;;;;;;59.60;30.23;;;9.50;95.70;;;;;;4799781;29;20231;-80
2021/11/21 13:59:52;;;;;;;56.85;31.27;;;9.50;95.90;;;;;;4815334;29;20033;-80
2021/11/21 14:02:38;;;;;;;58.08;31.58;;;9.50;95.90;;;;;;4783793;29;20102;-81
2021/11/21 14:05:07;;;;;;;57.72;30.98;;;9.50;96.10;;;;;;4813365;29;20037;-81
2021/11/21 14:07:34;;;;;;;65.25;32.65;;;9.50;96.20;;;;;;4814393;29;20018;-81
2021/11/21 14:10:03;;;;;;;63.83;32.63;;;9.50;95.90;;;;;;4814008;29;20050;-81
2021/11/21 14:12:33;;;;;;;63.97;32.60;;;9.50;96.00;;;;;;4798215;29;20057;-81
2021/11/21 14:15:20;;;;;;;59.30;31.13;;;9.50;96.10;;;;;;4814393;29;20041;-81
2021/11/21 14:17:51;;;;;;;68.13;33.60;;;9.50;96.30;;;;;;4798244;29;20095;-80
2021/11/21 14:20:58;;;;;;;73.30;36.55;;;9.50;96.30;;;;;;4797964;29;20039;-80
2021/11/21 14:23:29;;;;;;;77.00;37.00;;;9.40;96.20;;;;;;4790737;29;20042;-80
2021/11/21 14:25:58;;;;;;;75.90;37.45;;;9.40;96.40;;;;;;4795770;29;20266;-81
2021/11/21 14:28:27;;;;;;;83.20;39.45;;;9.30;96.70;;;;;;4797374;29;20051;-80
2021/11/21 14:30:55;;;;;;;81.97;39.05;;;9.40;96.70;;;;;;4797228;29;20031;-81
2021/11/21 14:33:23;;;;;;;70.47;35.58;;;9.40;96.60;;;;;;4782288;29;20045;-80
2021/11/21 14:35:51;;;;;;;86.40;39.10;;;9.30;96.60;;;;;;4794999;29;20035;-81
2021/11/21 14:38:17;;;;;;;79.53;36.00;;;9.30;96.70;;;;;;4808353;29;20043;-81
2021/11/21 14:41:09;;;;;;;83.73;38.80;;;9.10;97.10;;;;;;4780723;29;20031;-81
2021/11/21 14:43:40;;;;;;;89.15;39.05;;;8.90;97.60;;;;;;4783641;29;20027;-80
2021/11/21 14:46:07;;;;;;;96.80;42.20;;;8.80;98.00;;;;;;4809435;29;20122;-81
2021/11/21 14:48:51;;;;;;;92.80;40.85;;;8.70;98.20;;;;;;4814764;29;20045;-80
2021/11/21 14:51:18;;;;;;;100.25;41.50;;;8.60;98.50;;;;;;4810767;29;20099;-80
2021/11/21 14:53:44;;;;;;;99.65;40.70;;;8.40;98.80;;;;;;4759896;30;20046;-80
2021/11/21 14:56:15;;;;;;;108.25;42.60;;;8.40;99.10;;;;;;4812364;29;20062;-80
2021/11/21 14:58:46;;;;;;;103.43;40.17;;;8.40;99.30;;;;;;4792815;29;20270;-81
2021/11/21 15:01:15;;;;;;;99.90;41.35;;;8.30;99.20;;;;;;4795674;29;20057;-81
2021/11/21 15:03:42;;;;;;;94.28;40.22;;;8.30;99.50;;;;;;4818821;29;20026;-81
2021/11/21 15:06:08;;;;;;;95.70;40.53;;;8.20;99.50;;;;;;4828220;29;20043;-80
2021/11/21 15:08:34;;;;;;;98.78;39.65;;;8.20;99.70;;;;;;4780769;29;20102;-80
2021/11/21 15:10:59;;;;;;;95.35;40.03;;;8.30;99.70;;;;;;4783309;29;20053;-80
2021/11/21 15:13:25;;;;;;;102.25;39.53;;;8.20;99.80;;;;;;4797898;29;20035;-81
2021/11/21 15:15:51;;;;;;;94.35;37.85;;;8.20;99.80;;;;;;4782941;29;20066;-81
2021/11/21 15:18:17;;;;;;;94.85;40.22;;;8.10;99.90;;;;;;4779771;30;20225;-81
2021/11/21 15:20:43;;;;;;;105.07;42.40;;;8.10;99.90;;;;;;4778276;29;20107;-80
2021/11/21 15:23:09;;;;;;;100.80;40.70;;;8.10;99.90;;;;;;4798765;29;20035;-80
2021/11/21 15:25:36;;;;;;;102.10;40.65;;;8.10;99.90;;;;;;4800312;29;20163;-81
2021/11/21 15:28:03;;;;;;;100.95;39.78;;;8.10;99.90;;;;;;4797851;29;20084;-80
2021/11/21 15:30:29;;;;;;;;;;;8.10;99.90;;;;;;4796013;29;20334;-81
2021/11/21 15:32:55;;;;;;;97.33;40.70;;;8.00;99.90;;;;;;4802109;29;19924;-81
2021/11/21 15:35:24;;;;;;;115.43;40.55;;;8.00;99.90;;;;;;4798411;29;20043;-80
2021/11/21 15:37:53;;;;;;;89.65;38.70;;;8.10;99.90;;;;;;4767165;29;20031;-81
2021/11/21 15:40:24;;;;;;;86.32;36.92;;;8.00;99.90;;;;;;4815917;29;20062;-81
2021/11/21 15:42:51;;;;;;;101.18;39.95;;;8.10;99.90;;;;;;4815683;29;20034;-81
2021/11/21 15:45:18;;;;;;;102.78;41.13;;;8.10;99.90;;;;;;4797607;29;20047;-80
2021/11/21 15:47:45;;;;;;;89.93;39.00;;;8.20;99.90;;;;;;4796894;29;20031;-81
2021/11/21 15:50:13;;;;;;;99.22;39.70;;;8.10;99.90;;;;;;4812480;29;20250;-81
2021/11/21 15:52:39;;;;;;;101.32;42.78;;;8.10;99.90;;;;;;4795750;29;20290;-81
2021/11/21 15:55:06;;;;;;;103.27;40.47;;;8.10;99.90;;;;;;4793951;29;20119;-81
2021/11/21 15:57:32;;;;;;;104.25;42.22;;;8.10;99.90;;;;;;4812447;29;20192;-80
2021/11/21 15:59:58;;;;;;;104.88;41.15;;;8.00;99.90;;;;;;4799350;29;20099;-81
2021/11/21 16:02:24;;;;;;;110.47;40.45;;;7.90;99.90;;;;;;4796505;29;20246;-81
2021/11/21 16:04:52;;;;;;;107.38;42.22;;;7.80;99.90;;;;;;4812567;29;20034;-80
2021/11/21 16:07:19;;;;;;;107.65;43.08;;;7.90;99.90;;;;;;4780259;29;20500;-80
2021/11/21 16:09:45;;;;;;;109.50;42.67;;;7.80;99.90;;;;;;4810784;29;20165;-80
2021/11/21 16:12:11;;;;;;;114.80;46.70;;;7.90;99.90;;;;;;4799219;29;20038;-79
2021/11/21 16:14:39;;;;;;;114.07;43.00;;;8.00;99.90;;;;;;4780633;29;20139;-79
2021/11/21 16:17:05;;;;;;;94.82;39.65;;;7.90;99.90;;;;;;4811149;29;20062;-79
2021/11/21 16:19:31;;;;;;;103.60;41.65;;;7.90;99.90;;;;;;4814496;29;20096;-79
2021/11/21 16:21:57;;;;;;;96.93;40.33;;;8.00;99.90;;;;;;4798863;29;20038;-80
2021/11/21 16:24:24;;;;;;;95.15;41.65;;;8.00;99.90;;;;;;4813999;29;20045;-80
2021/11/21 16:26:50;;;;;;;97.95;40.08;;;8.10;99.90;;;;;;4816198;29;20038;-80
2021/11/21 16:29:21;;;;;;;101.38;41.70;;;8.20;99.90;;;;;;4800619;29;20070;-79